createdAt,value
2023-07-24T00:02:24.828Z,8.40
2023-07-24T00:15:24.799Z,9.20
2023-07-24T00:28:24.792Z,9.20
2023-07-24T00:41:24.768Z,8.20
2023-07-24T00:54:24.785Z,8.70
2023-07-24T01:07:24.781Z,9.90
2023-07-24T01:20:24.791Z,9.20
2023-07-24T01:33:24.834Z,9.40
2023-07-24T01:46:24.841Z,8.00
2023-07-24T01:59:24.824Z,9.10
2023-07-24T02:12:24.832Z,8.70
2023-07-24T02:25:24.817Z,9.10
2023-07-24T02:38:24.847Z,10.10
2023-07-24T02:51:24.868Z,10.20
2023-07-24T03:04:24.867Z,9.80
2023-07-24T03:17:24.913Z,10.00
2023-07-24T03:30:24.934Z,9.30
2023-07-24T03:43:24.912Z,10.70
2023-07-24T03:56:24.935Z,10.70
2023-07-24T04:09:24.939Z,11.90
2023-07-24T04:22:24.977Z,16.90
2023-07-24T04:35:24.973Z,11.20
2023-07-24T04:48:24.980Z,12.40
2023-07-24T05:01:24.968Z,11.30
2023-07-24T05:14:25.008Z,10.70
2023-07-24T05:27:24.982Z,14.20
2023-07-24T05:40:25.001Z,11.30
2023-07-24T05:53:25.026Z,13.00
2023-07-24T06:06:25.029Z,10.30
2023-07-24T06:19:25.039Z,10.00
2023-07-24T06:32:25.051Z,12.60
2023-07-24T06:45:25.030Z,12.00
2023-07-24T06:58:25.114Z,10.60
2023-07-24T07:11:25.112Z,10.90
2023-07-24T07:24:25.127Z,16.90
2023-07-24T07:37:25.121Z,35.60
2023-07-24T07:50:25.095Z,19.70
2023-07-24T08:03:25.181Z,12.40
2023-07-24T08:16:25.226Z,12.90
2023-07-24T08:29:25.175Z,10.50
2023-07-24T08:42:25.183Z,9.90
2023-07-24T08:55:25.216Z,11.10
2023-07-24T09:08:25.208Z,9.70
2023-07-24T09:21:25.231Z,9.60
2023-07-24T09:34:25.341Z,9.70
2023-07-24T09:47:32.639Z,13.20
2023-07-24T10:00:25.223Z,10.70
2023-07-24T10:13:25.230Z,10.60
2023-07-24T10:26:25.226Z,10.20
2023-07-24T10:39:25.244Z,17.90
2023-07-24T10:52:25.257Z,12.20
2023-07-24T11:05:25.272Z,12.10
2023-07-24T11:18:25.484Z,13.10
2023-07-24T11:31:25.311Z,11.40
2023-07-24T11:44:25.261Z,10.60
2023-07-24T11:57:25.292Z,11.40
2023-07-24T12:10:25.257Z,13.80
2023-07-24T12:23:25.269Z,11.40
2023-07-24T12:36:25.281Z,12.00
2023-07-24T12:49:25.293Z,15.00
2023-07-24T13:02:25.340Z,12.60
2023-07-24T13:15:25.335Z,15.80
2023-07-24T13:28:25.404Z,12.30
2023-07-24T13:41:25.434Z,12.70
2023-07-24T13:54:25.400Z,14.40
2023-07-24T14:07:25.407Z,14.40
2023-07-24T14:20:25.397Z,20.20
2023-07-24T14:33:25.407Z,15.80
2023-07-24T14:46:25.509Z,15.20
2023-07-24T14:59:25.435Z,12.20
2023-07-24T15:12:25.418Z,13.40
2023-07-24T15:25:25.410Z,12.80
2023-07-24T15:38:25.440Z,11.50
2023-07-24T15:51:25.439Z,14.70
2023-07-24T16:04:25.447Z,15.70
2023-07-24T16:17:25.476Z,13.90
2023-07-24T16:30:27.551Z,14.40
2023-07-24T16:43:25.437Z,14.60
2023-07-24T16:56:25.501Z,14.30
2023-07-24T17:09:25.509Z,12.90
2023-07-24T17:22:25.490Z,13.10
2023-07-24T17:35:25.491Z,12.00
2023-07-24T17:48:25.525Z,11.60
2023-07-24T18:01:25.545Z,11.60
2023-07-24T18:14:25.528Z,13.10
2023-07-24T18:27:25.510Z,12.90
2023-07-24T18:40:25.532Z,16.40
2023-07-24T18:53:25.533Z,20.70
2023-07-24T19:06:25.556Z,16.70
2023-07-24T19:19:25.533Z,15.80
2023-07-24T19:32:25.573Z,12.80
2023-07-24T19:45:25.551Z,14.30
2023-07-24T19:58:33.469Z,11.90
2023-07-24T20:11:25.600Z,12.70
2023-07-24T20:24:25.589Z,9.50
2023-07-24T20:37:25.583Z,9.60
2023-07-24T20:50:25.586Z,8.90
2023-07-24T21:03:25.599Z,7.70
2023-07-24T21:16:25.645Z,5.40
2023-07-24T21:29:25.645Z,6.00
2023-07-24T21:42:25.674Z,5.10
2023-07-24T21:55:25.660Z,6.10
2023-07-24T22:08:25.682Z,5.40
2023-07-24T22:21:25.681Z,4.80
2023-07-24T22:34:25.682Z,6.20
2023-07-24T22:47:25.753Z,5.30
2023-07-24T23:00:25.728Z,7.10
2023-07-24T23:13:25.740Z,3.60
2023-07-24T23:26:25.753Z,4.90
2023-07-24T23:39:25.755Z,5.80
2023-07-24T23:52:25.800Z,6.80
